sensor_id;sensor_type;location;lat;lon;timestamp;P1;durP1;ratioP1;P2;durP2;ratioP2
11447;SDS011;43755;49.736;8.734;2024-01-11T00:00:53;29.58;;;17.55;;
11447;SDS011;43755;49.736;8.734;2024-01-11T00:02:55;29.85;;;17.92;;
11447;SDS011;43755;49.736;8.734;2024-01-11T00:04:57;31.50;;;18.70;;
11447;SDS011;43755;49.736;8.734;2024-01-11T00:06:58;31.55;;;19.25;;
11447;SDS011;43755;49.736;8.734;2024-01-11T00:08:59;31.77;;;18.60;;
11447;SDS011;43755;49.736;8.734;2024-01-11T00:11:01;35.20;;;19.90;;
11447;SDS011;43755;49.736;8.734;2024-01-11T00:13:02;34.03;;;19.15;;
11447;SDS011;43755;49.736;8.734;2024-01-11T00:15:04;34.25;;;20.27;;
11447;SDS011;43755;49.736;8.734;2024-01-11T00:17:06;32.25;;;19.30;;
11447;SDS011;43755;49.736;8.734;2024-01-11T00:19:08;33.35;;;20.35;;
11447;SDS011;43755;49.736;8.734;2024-01-11T00:21:11;37.05;;;21.60;;
11447;SDS011;43755;49.736;8.734;2024-01-11T00:23:12;35.15;;;20.63;;
11447;SDS011;43755;49.736;8.734;2024-01-11T00:25:13;34.70;;;20.57;;
11447;SDS011;43755;49.736;8.734;2024-01-11T00:27:14;33.70;;;20.77;;
11447;SDS011;43755;49.736;8.734;2024-01-11T00:29:15;33.83;;;21.00;;
11447;SDS011;43755;49.736;8.734;2024-01-11T00:31:16;33.10;;;20.50;;
11447;SDS011;43755;49.736;8.734;2024-01-11T00:33:17;36.95;;;21.80;;
11447;SDS011;43755;49.736;8.734;2024-01-11T00:35:19;38.15;;;20.88;;
11447;SDS011;43755;49.736;8.734;2024-01-11T00:37:21;36.63;;;21.63;;
11447;SDS011;43755;49.736;8.734;2024-01-11T00:39:22;36.75;;;21.00;;
11447;SDS011;43755;49.736;8.734;2024-01-11T00:41:24;39.15;;;21.65;;
11447;SDS011;43755;49.736;8.734;2024-01-11T00:43:25;36.27;;;20.90;;
11447;SDS011;43755;49.736;8.734;2024-01-11T00:45:26;36.53;;;22.25;;
11447;SDS011;43755;49.736;8.734;2024-01-11T00:47:27;40.50;;;22.88;;
11447;SDS011;43755;49.736;8.734;2024-01-11T00:49:29;36.53;;;22.02;;
11447;SDS011;43755;49.736;8.734;2024-01-11T00:51:30;38.35;;;22.80;;
11447;SDS011;43755;49.736;8.734;2024-01-11T00:53:33;38.60;;;22.17;;
11447;SDS011;43755;49.736;8.734;2024-01-11T00:55:34;40.47;;;22.60;;
11447;SDS011;43755;49.736;8.734;2024-01-11T00:57:36;41.85;;;22.05;;
11447;SDS011;43755;49.736;8.734;2024-01-11T00:59:36;37.47;;;22.00;;
11447;SDS011;43755;49.736;8.734;2024-01-11T01:01:37;41.70;;;22.08;;
11447;SDS011;43755;49.736;8.734;2024-01-11T01:03:39;35.42;;;21.58;;
11447;SDS011;43755;49.736;8.734;2024-01-11T01:05:40;37.20;;;21.10;;
11447;SDS011;43755;49.736;8.734;2024-01-11T01:07:42;33.92;;;21.27;;
11447;SDS011;43755;49.736;8.734;2024-01-11T01:09:44;36.33;;;22.60;;
11447;SDS011;43755;49.736;8.734;2024-01-11T01:11:46;38.53;;;22.45;;
11447;SDS011;43755;49.736;8.734;2024-01-11T01:13:47;36.85;;;22.08;;
11447;SDS011;43755;49.736;8.734;2024-01-11T01:15:49;39.00;;;22.48;;
11447;SDS011;43755;49.736;8.734;2024-01-11T01:17:50;41.92;;;22.25;;
11447;SDS011;43755;49.736;8.734;2024-01-11T01:19:51;38.10;;;22.77;;
11447;SDS011;43755;49.736;8.734;2024-01-11T01:21:53;38.65;;;22.50;;
11447;SDS011;43755;49.736;8.734;2024-01-11T01:23:53;40.70;;;22.17;;
11447;SDS011;43755;49.736;8.734;2024-01-11T01:25:56;39.40;;;22.88;;
11447;SDS011;43755;49.736;8.734;2024-01-11T01:27:58;39.22;;;23.20;;
11447;SDS011;43755;49.736;8.734;2024-01-11T01:30:00;39.65;;;22.70;;
11447;SDS011;43755;49.736;8.734;2024-01-11T01:32:02;45.47;;;25.42;;
11447;SDS011;43755;49.736;8.734;2024-01-11T01:34:04;48.25;;;25.33;;
11447;SDS011;43755;49.736;8.734;2024-01-11T01:36:07;46.20;;;25.95;;
11447;SDS011;43755;49.736;8.734;2024-01-11T01:38:09;46.80;;;26.90;;
11447;SDS011;43755;49.736;8.734;2024-01-11T01:40:11;48.92;;;27.15;;
11447;SDS011;43755;49.736;8.734;2024-01-11T01:42:14;46.15;;;26.17;;
11447;SDS011;43755;49.736;8.734;2024-01-11T01:44:15;46.50;;;26.88;;
11447;SDS011;43755;49.736;8.734;2024-01-11T01:46:19;50.38;;;27.17;;
11447;SDS011;43755;49.736;8.734;2024-01-11T01:48:24;47.55;;;25.42;;
11447;SDS011;43755;49.736;8.734;2024-01-11T01:50:25;47.38;;;28.08;;
11447;SDS011;43755;49.736;8.734;2024-01-11T01:52:26;50.63;;;27.83;;
11447;SDS011;43755;49.736;8.734;2024-01-11T01:54:27;46.65;;;26.15;;
11447;SDS011;43755;49.736;8.734;2024-01-11T01:56:29;46.88;;;27.13;;
11447;SDS011;43755;49.736;8.734;2024-01-11T01:58:32;47.58;;;27.83;;
11447;SDS011;43755;49.736;8.734;2024-01-11T02:00:34;51.38;;;27.92;;
11447;SDS011;43755;49.736;8.734;2024-01-11T02:02:35;45.87;;;27.63;;
11447;SDS011;43755;49.736;8.734;2024-01-11T02:04:36;45.30;;;26.05;;
11447;SDS011;43755;49.736;8.734;2024-01-11T02:06:38;49.97;;;28.13;;
11447;SDS011;43755;49.736;8.734;2024-01-11T02:08:39;52.85;;;27.98;;
11447;SDS011;43755;49.736;8.734;2024-01-11T02:10:43;52.75;;;27.95;;
11447;SDS011;43755;49.736;8.734;2024-01-11T02:12:45;50.90;;;28.92;;
11447;SDS011;43755;49.736;8.734;2024-01-11T02:14:48;51.67;;;28.92;;
11447;SDS011;43755;49.736;8.734;2024-01-11T02:16:49;49.63;;;27.02;;
11447;SDS011;43755;49.736;8.734;2024-01-11T02:18:50;52.85;;;28.67;;
11447;SDS011;43755;49.736;8.734;2024-01-11T02:20:52;49.10;;;27.15;;
11447;SDS011;43755;49.736;8.734;2024-01-11T02:22:55;51.80;;;27.08;;
11447;SDS011;43755;49.736;8.734;2024-01-11T02:25:03;50.15;;;27.63;;
11447;SDS011;43755;49.736;8.734;2024-01-11T02:27:05;51.95;;;27.50;;
11447;SDS011;43755;49.736;8.734;2024-01-11T02:29:07;50.45;;;28.00;;
11447;SDS011;43755;49.736;8.734;2024-01-11T02:31:08;50.97;;;27.52;;
11447;SDS011;43755;49.736;8.734;2024-01-11T02:33:08;46.20;;;26.73;;
11447;SDS011;43755;49.736;8.734;2024-01-11T02:35:11;55.00;;;28.45;;
11447;SDS011;43755;49.736;8.734;2024-01-11T02:37:13;47.50;;;27.35;;
11447;SDS011;43755;49.736;8.734;2024-01-11T02:39:15;47.00;;;27.52;;
11447;SDS011;43755;49.736;8.734;2024-01-11T02:41:19;46.72;;;27.05;;
11447;SDS011;43755;49.736;8.734;2024-01-11T02:43:22;46.60;;;26.40;;
11447;SDS011;43755;49.736;8.734;2024-01-11T02:45:23;47.92;;;27.38;;
11447;SDS011;43755;49.736;8.734;2024-01-11T02:47:25;46.85;;;26.88;;
11447;SDS011;43755;49.736;8.734;2024-01-11T02:49:26;46.13;;;26.45;;
11447;SDS011;43755;49.736;8.734;2024-01-11T02:51:28;48.30;;;26.67;;
11447;SDS011;43755;49.736;8.734;2024-01-11T02:53:28;46.30;;;24.57;;
11447;SDS011;43755;49.736;8.734;2024-01-11T02:55:34;41.90;;;25.58;;
11447;SDS011;43755;49.736;8.734;2024-01-11T02:57:36;45.25;;;26.63;;
11447;SDS011;43755;49.736;8.734;2024-01-11T02:59:39;47.35;;;26.17;;
11447;SDS011;43755;49.736;8.734;2024-01-11T03:01:40;47.13;;;26.48;;
11447;SDS011;43755;49.736;8.734;2024-01-11T03:03:42;45.33;;;24.90;;
11447;SDS011;43755;49.736;8.734;2024-01-11T03:05:43;44.40;;;25.50;;
11447;SDS011;43755;49.736;8.734;2024-01-11T03:07:44;44.25;;;24.85;;
11447;SDS011;43755;49.736;8.734;2024-01-11T03:09:46;43.20;;;24.73;;
11447;SDS011;43755;49.736;8.734;2024-01-11T03:11:47;42.70;;;24.67;;
11447;SDS011;43755;49.736;8.734;2024-01-11T03:13:50;42.65;;;24.48;;
11447;SDS011;43755;49.736;8.734;2024-01-11T03:15:51;42.78;;;25.33;;
11447;SDS011;43755;49.736;8.734;2024-01-11T03:17:53;39.30;;;23.23;;
11447;SDS011;43755;49.736;8.734;2024-01-11T03:19:54;41.88;;;24.70;;
11447;SDS011;43755;49.736;8.734;2024-01-11T03:21:55;42.65;;;25.08;;
11447;SDS011;43755;49.736;8.734;2024-01-11T03:23:56;44.33;;;24.63;;
11447;SDS011;43755;49.736;8.734;2024-01-11T03:25:57;44.30;;;24.55;;
11447;SDS011;43755;49.736;8.734;2024-01-11T03:27:58;43.13;;;24.67;;
11447;SDS011;43755;49.736;8.734;2024-01-11T03:30:01;42.67;;;24.67;;
11447;SDS011;43755;49.736;8.734;2024-01-11T03:32:02;43.28;;;26.25;;
11447;SDS011;43755;49.736;8.734;2024-01-11T03:34:04;41.55;;;25.10;;
11447;SDS011;43755;49.736;8.734;2024-01-11T03:36:06;41.67;;;24.95;;
11447;SDS011;43755;49.736;8.734;2024-01-11T03:38:08;45.67;;;23.58;;
11447;SDS011;43755;49.736;8.734;2024-01-11T03:40:10;40.95;;;24.60;;
11447;SDS011;43755;49.736;8.734;2024-01-11T03:42:11;41.83;;;24.65;;
11447;SDS011;43755;49.736;8.734;2024-01-11T03:44:12;44.83;;;24.80;;
11447;SDS011;43755;49.736;8.734;2024-01-11T03:46:15;39.42;;;24.67;;
11447;SDS011;43755;49.736;8.734;2024-01-11T03:48:16;41.92;;;25.35;;
11447;SDS011;43755;49.736;8.734;2024-01-11T03:50:18;42.55;;;24.00;;
11447;SDS011;43755;49.736;8.734;2024-01-11T03:52:19;43.17;;;24.33;;
11447;SDS011;43755;49.736;8.734;2024-01-11T03:54:21;42.63;;;24.90;;
11447;SDS011;43755;49.736;8.734;2024-01-11T03:56:22;39.80;;;23.55;;
11447;SDS011;43755;49.736;8.734;2024-01-11T03:58:24;44.03;;;25.17;;
11447;SDS011;43755;49.736;8.734;2024-01-11T04:00:26;40.33;;;22.88;;
11447;SDS011;43755;49.736;8.734;2024-01-11T04:02:29;42.33;;;24.13;;
11447;SDS011;43755;49.736;8.734;2024-01-11T04:04:29;39.58;;;23.38;;
11447;SDS011;43755;49.736;8.734;2024-01-11T04:06:31;40.60;;;23.75;;
11447;SDS011;43755;49.736;8.734;2024-01-11T04:08:32;38.78;;;24.33;;
11447;SDS011;43755;49.736;8.734;2024-01-11T04:10:34;39.30;;;24.20;;
11447;SDS011;43755;49.736;8.734;2024-01-11T04:12:35;41.05;;;24.23;;
11447;SDS011;43755;49.736;8.734;2024-01-11T04:14:37;42.38;;;25.25;;
11447;SDS011;43755;49.736;8.734;2024-01-11T04:16:39;45.20;;;25.05;;
11447;SDS011;43755;49.736;8.734;2024-01-11T04:18:43;42.88;;;24.05;;
11447;SDS011;43755;49.736;8.734;2024-01-11T04:20:44;44.63;;;25.35;;
11447;SDS011;43755;49.736;8.734;2024-01-11T04:22:45;41.93;;;24.70;;
11447;SDS011;43755;49.736;8.734;2024-01-11T04:24:46;42.22;;;25.25;;
11447;SDS011;43755;49.736;8.734;2024-01-11T04:26:47;43.65;;;24.98;;
11447;SDS011;43755;49.736;8.734;2024-01-11T04:28:49;45.03;;;26.38;;
11447;SDS011;43755;49.736;8.734;2024-01-11T04:30:52;47.22;;;25.63;;
11447;SDS011;43755;49.736;8.734;2024-01-11T04:32:53;47.80;;;26.90;;
11447;SDS011;43755;49.736;8.734;2024-01-11T04:34:56;47.38;;;26.60;;
11447;SDS011;43755;49.736;8.734;2024-01-11T04:36:57;46.50;;;25.60;;
11447;SDS011;43755;49.736;8.734;2024-01-11T04:38:59;42.92;;;25.90;;
11447;SDS011;43755;49.736;8.734;2024-01-11T04:40:59;48.40;;;26.30;;
11447;SDS011;43755;49.736;8.734;2024-01-11T04:43:01;47.65;;;26.52;;
11447;SDS011;43755;49.736;8.734;2024-01-11T04:45:02;48.03;;;26.88;;
11447;SDS011;43755;49.736;8.734;2024-01-11T04:47:05;45.75;;;26.00;;
11447;SDS011;43755;49.736;8.734;2024-01-11T04:49:06;47.15;;;27.30;;
11447;SDS011;43755;49.736;8.734;2024-01-11T04:51:09;48.20;;;26.65;;
11447;SDS011;43755;49.736;8.734;2024-01-11T04:53:11;46.35;;;27.30;;
11447;SDS011;43755;49.736;8.734;2024-01-11T04:55:12;49.72;;;27.23;;
11447;SDS011;43755;49.736;8.734;2024-01-11T04:57:13;49.15;;;27.20;;
11447;SDS011;43755;49.736;8.734;2024-01-11T04:59:15;49.03;;;27.70;;
11447;SDS011;43755;49.736;8.734;2024-01-11T05:01:17;49.75;;;27.45;;
11447;SDS011;43755;49.736;8.734;2024-01-11T05:03:19;52.35;;;28.33;;
11447;SDS011;43755;49.736;8.734;2024-01-11T05:05:20;48.63;;;27.80;;
11447;SDS011;43755;49.736;8.734;2024-01-11T05:07:22;47.27;;;27.00;;
11447;SDS011;43755;49.736;8.734;2024-01-11T05:09:23;49.10;;;27.58;;
11447;SDS011;43755;49.736;8.734;2024-01-11T05:11:25;50.97;;;28.10;;
11447;SDS011;43755;49.736;8.734;2024-01-11T05:13:26;52.42;;;27.52;;
11447;SDS011;43755;49.736;8.734;2024-01-11T05:15:27;49.15;;;27.13;;
11447;SDS011;43755;49.736;8.734;2024-01-11T05:17:29;53.92;;;28.45;;
11447;SDS011;43755;49.736;8.734;2024-01-11T05:19:30;49.55;;;27.95;;
11447;SDS011;43755;49.736;8.734;2024-01-11T05:21:32;51.25;;;27.38;;
11447;SDS011;43755;49.736;8.734;2024-01-11T05:23:34;48.50;;;27.50;;
11447;SDS011;43755;49.736;8.734;2024-01-11T05:25:36;52.75;;;28.45;;
11447;SDS011;43755;49.736;8.734;2024-01-11T05:27:36;48.33;;;27.27;;
11447;SDS011;43755;49.736;8.734;2024-01-11T05:29:38;47.78;;;28.02;;
11447;SDS011;43755;49.736;8.734;2024-01-11T05:31:39;48.60;;;27.50;;
11447;SDS011;43755;49.736;8.734;2024-01-11T05:33:41;48.13;;;27.83;;
11447;SDS011;43755;49.736;8.734;2024-01-11T05:35:43;51.15;;;27.58;;
11447;SDS011;43755;49.736;8.734;2024-01-11T05:37:44;46.65;;;27.23;;
11447;SDS011;43755;49.736;8.734;2024-01-11T05:39:47;50.30;;;28.40;;
11447;SDS011;43755;49.736;8.734;2024-01-11T05:41:48;49.42;;;27.55;;
11447;SDS011;43755;49.736;8.734;2024-01-11T05:43:50;50.83;;;27.48;;
11447;SDS011;43755;49.736;8.734;2024-01-11T05:45:51;49.50;;;26.10;;
11447;SDS011;43755;49.736;8.734;2024-01-11T05:47:52;50.73;;;27.10;;
11447;SDS011;43755;49.736;8.734;2024-01-11T05:49:53;48.97;;;26.52;;
11447;SDS011;43755;49.736;8.734;2024-01-11T05:51:55;50.03;;;27.73;;
11447;SDS011;43755;49.736;8.734;2024-01-11T05:53:56;45.90;;;26.42;;
11447;SDS011;43755;49.736;8.734;2024-01-11T05:55:59;51.33;;;30.65;;
11447;SDS011;43755;49.736;8.734;2024-01-11T05:58:01;50.40;;;28.20;;
11447;SDS011;43755;49.736;8.734;2024-01-11T06:00:02;51.03;;;28.00;;
11447;SDS011;43755;49.736;8.734;2024-01-11T06:02:04;49.83;;;27.55;;
11447;SDS011;43755;49.736;8.734;2024-01-11T06:04:06;50.28;;;26.83;;
11447;SDS011;43755;49.736;8.734;2024-01-11T06:06:07;49.10;;;27.15;;
11447;SDS011;43755;49.736;8.734;2024-01-11T06:08:09;46.50;;;27.33;;
11447;SDS011;43755;49.736;8.734;2024-01-11T06:10:10;51.45;;;27.65;;
11447;SDS011;43755;49.736;8.734;2024-01-11T06:12:13;44.65;;;26.35;;
11447;SDS011;43755;49.736;8.734;2024-01-11T06:14:14;50.50;;;26.42;;
11447;SDS011;43755;49.736;8.734;2024-01-11T06:16:15;50.15;;;26.23;;
11447;SDS011;43755;49.736;8.734;2024-01-11T06:18:17;51.80;;;27.77;;
11447;SDS011;43755;49.736;8.734;2024-01-11T06:20:19;49.28;;;27.77;;
11447;SDS011;43755;49.736;8.734;2024-01-11T06:22:20;51.97;;;28.38;;
11447;SDS011;43755;49.736;8.734;2024-01-11T06:24:22;47.70;;;26.85;;
11447;SDS011;43755;49.736;8.734;2024-01-11T06:26:23;50.65;;;27.73;;
11447;SDS011;43755;49.736;8.734;2024-01-11T06:28:25;47.73;;;26.87;;
11447;SDS011;43755;49.736;8.734;2024-01-11T06:30:26;53.45;;;27.50;;
11447;SDS011;43755;49.736;8.734;2024-01-11T06:32:28;50.78;;;27.52;;
11447;SDS011;43755;49.736;8.734;2024-01-11T06:34:28;52.83;;;27.10;;
11447;SDS011;43755;49.736;8.734;2024-01-11T06:36:30;52.00;;;28.00;;
11447;SDS011;43755;49.736;8.734;2024-01-11T06:38:30;51.20;;;28.23;;
11447;SDS011;43755;49.736;8.734;2024-01-11T06:40:31;67.07;;;27.83;;
11447;SDS011;43755;49.736;8.734;2024-01-11T06:42:33;53.35;;;28.55;;
11447;SDS011;43755;49.736;8.734;2024-01-11T06:44:35;55.05;;;29.40;;
11447;SDS011;43755;49.736;8.734;2024-01-11T06:46:37;53.28;;;29.13;;
11447;SDS011;43755;49.736;8.734;2024-01-11T06:48:39;62.67;;;31.38;;
11447;SDS011;43755;49.736;8.734;2024-01-11T06:50:40;63.23;;;32.60;;
11447;SDS011;43755;49.736;8.734;2024-01-11T06:52:41;61.40;;;38.50;;
11447;SDS011;43755;49.736;8.734;2024-01-11T06:54:42;59.20;;;33.33;;
11447;SDS011;43755;49.736;8.734;2024-01-11T06:56:44;59.55;;;32.83;;
11447;SDS011;43755;49.736;8.734;2024-01-11T06:58:45;60.50;;;33.55;;
11447;SDS011;43755;49.736;8.734;2024-01-11T07:00:49;59.33;;;32.20;;
11447;SDS011;43755;49.736;8.734;2024-01-11T07:02:50;62.38;;;31.95;;
11447;SDS011;43755;49.736;8.734;2024-01-11T07:04:53;57.95;;;31.20;;
11447;SDS011;43755;49.736;8.734;2024-01-11T07:06:55;56.80;;;31.80;;
11447;SDS011;43755;49.736;8.734;2024-01-11T07:08:56;62.13;;;31.27;;
11447;SDS011;43755;49.736;8.734;2024-01-11T07:10:58;58.58;;;31.25;;
11447;SDS011;43755;49.736;8.734;2024-01-11T07:13:00;64.45;;;32.70;;
11447;SDS011;43755;49.736;8.734;2024-01-11T07:15:02;63.80;;;32.75;;
11447;SDS011;43755;49.736;8.734;2024-01-11T07:17:06;59.97;;;32.08;;
11447;SDS011;43755;49.736;8.734;2024-01-11T07:19:07;62.35;;;32.50;;
11447;SDS011;43755;49.736;8.734;2024-01-11T07:21:09;60.45;;;32.47;;
11447;SDS011;43755;49.736;8.734;2024-01-11T07:23:10;62.90;;;32.58;;
11447;SDS011;43755;49.736;8.734;2024-01-11T07:25:11;55.25;;;31.25;;
11447;SDS011;43755;49.736;8.734;2024-01-11T07:27:14;64.00;;;32.28;;
11447;SDS011;43755;49.736;8.734;2024-01-11T07:29:14;66.97;;;34.40;;
11447;SDS011;43755;49.736;8.734;2024-01-11T07:31:16;62.55;;;33.70;;
11447;SDS011;43755;49.736;8.734;2024-01-11T07:33:18;58.70;;;31.88;;
11447;SDS011;43755;49.736;8.734;2024-01-11T07:35:19;59.08;;;32.13;;
11447;SDS011;43755;49.736;8.734;2024-01-11T07:37:21;62.78;;;33.33;;
11447;SDS011;43755;49.736;8.734;2024-01-11T07:39:22;57.95;;;32.35;;
11447;SDS011;43755;49.736;8.734;2024-01-11T07:41:24;58.35;;;31.30;;
11447;SDS011;43755;49.736;8.734;2024-01-11T07:43:26;62.05;;;33.45;;
11447;SDS011;43755;49.736;8.734;2024-01-11T07:45:28;61.08;;;32.42;;
11447;SDS011;43755;49.736;8.734;2024-01-11T07:47:30;61.10;;;32.97;;
11447;SDS011;43755;49.736;8.734;2024-01-11T07:49:32;65.40;;;32.53;;
11447;SDS011;43755;49.736;8.734;2024-01-11T07:51:34;61.55;;;32.85;;
11447;SDS011;43755;49.736;8.734;2024-01-11T07:53:35;72.72;;;34.35;;
11447;SDS011;43755;49.736;8.734;2024-01-11T07:55:37;60.15;;;32.85;;
11447;SDS011;43755;49.736;8.734;2024-01-11T07:57:38;66.05;;;33.28;;
11447;SDS011;43755;49.736;8.734;2024-01-11T07:59:40;59.40;;;32.05;;
11447;SDS011;43755;49.736;8.734;2024-01-11T08:01:41;63.15;;;33.72;;
11447;SDS011;43755;49.736;8.734;2024-01-11T08:03:43;60.33;;;32.55;;
11447;SDS011;43755;49.736;8.734;2024-01-11T08:05:47;59.45;;;32.08;;
11447;SDS011;43755;49.736;8.734;2024-01-11T08:07:50;61.50;;;32.83;;
11447;SDS011;43755;49.736;8.734;2024-01-11T08:09:51;61.08;;;31.50;;
11447;SDS011;43755;49.736;8.734;2024-01-11T08:11:52;62.53;;;31.67;;
11447;SDS011;43755;49.736;8.734;2024-01-11T08:13:54;58.90;;;31.83;;
11447;SDS011;43755;49.736;8.734;2024-01-11T08:15:55;63.67;;;32.95;;
11447;SDS011;43755;49.736;8.734;2024-01-11T08:17:57;61.13;;;31.63;;
11447;SDS011;43755;49.736;8.734;2024-01-11T08:20:00;65.32;;;34.35;;
11447;SDS011;43755;49.736;8.734;2024-01-11T08:22:03;64.85;;;32.72;;
11447;SDS011;43755;49.736;8.734;2024-01-11T08:24:05;60.97;;;32.33;;
11447;SDS011;43755;49.736;8.734;2024-01-11T08:26:07;61.05;;;33.70;;
11447;SDS011;43755;49.736;8.734;2024-01-11T08:28:08;61.00;;;32.65;;
11447;SDS011;43755;49.736;8.734;2024-01-11T08:30:10;64.78;;;33.72;;
11447;SDS011;43755;49.736;8.734;2024-01-11T08:32:12;59.85;;;32.60;;
11447;SDS011;43755;49.736;8.734;2024-01-11T08:34:14;68.47;;;33.17;;
11447;SDS011;43755;49.736;8.734;2024-01-11T08:36:14;66.03;;;32.67;;
11447;SDS011;43755;49.736;8.734;2024-01-11T08:38:17;62.75;;;33.33;;
11447;SDS011;43755;49.736;8.734;2024-01-11T08:40:17;64.47;;;33.70;;
11447;SDS011;43755;49.736;8.734;2024-01-11T08:42:19;59.40;;;32.80;;
11447;SDS011;43755;49.736;8.734;2024-01-11T08:44:20;63.60;;;33.38;;
11447;SDS011;43755;49.736;8.734;2024-01-11T08:46:24;64.28;;;33.72;;
11447;SDS011;43755;49.736;8.734;2024-01-11T08:48:26;63.22;;;33.67;;
11447;SDS011;43755;49.736;8.734;2024-01-11T08:50:28;63.63;;;32.30;;
11447;SDS011;43755;49.736;8.734;2024-01-11T08:52:29;63.00;;;33.17;;
11447;SDS011;43755;49.736;8.734;2024-01-11T08:54:32;62.42;;;33.75;;
11447;SDS011;43755;49.736;8.734;2024-01-11T08:56:34;60.90;;;32.95;;
11447;SDS011;43755;49.736;8.734;2024-01-11T08:58:36;64.50;;;34.40;;
11447;SDS011;43755;49.736;8.734;2024-01-11T09:00:37;67.30;;;34.55;;
11447;SDS011;43755;49.736;8.734;2024-01-11T09:02:39;60.17;;;32.55;;
11447;SDS011;43755;49.736;8.734;2024-01-11T09:04:40;60.05;;;32.55;;
11447;SDS011;43755;49.736;8.734;2024-01-11T09:06:41;59.43;;;34.47;;
11447;SDS011;43755;49.736;8.734;2024-01-11T09:08:42;62.47;;;33.55;;
11447;SDS011;43755;49.736;8.734;2024-01-11T09:10:45;57.25;;;32.55;;
11447;SDS011;43755;49.736;8.734;2024-01-11T09:12:46;59.78;;;32.90;;
11447;SDS011;43755;49.736;8.734;2024-01-11T09:14:48;64.68;;;33.75;;
11447;SDS011;43755;49.736;8.734;2024-01-11T09:16:48;59.70;;;33.53;;
11447;SDS011;43755;49.736;8.734;2024-01-11T09:18:50;62.28;;;32.30;;
11447;SDS011;43755;49.736;8.734;2024-01-11T09:20:51;63.58;;;33.97;;
11447;SDS011;43755;49.736;8.734;2024-01-11T09:22:52;61.83;;;33.70;;
11447;SDS011;43755;49.736;8.734;2024-01-11T09:24:54;64.10;;;35.08;;
11447;SDS011;43755;49.736;8.734;2024-01-11T09:26:56;58.25;;;32.10;;
11447;SDS011;43755;49.736;8.734;2024-01-11T09:28:58;60.50;;;31.92;;
11447;SDS011;43755;49.736;8.734;2024-01-11T09:30:59;60.03;;;32.83;;
11447;SDS011;43755;49.736;8.734;2024-01-11T09:33:01;63.35;;;33.67;;
11447;SDS011;43755;49.736;8.734;2024-01-11T09:35:04;65.55;;;34.17;;
11447;SDS011;43755;49.736;8.734;2024-01-11T09:37:05;61.88;;;33.63;;
11447;SDS011;43755;49.736;8.734;2024-01-11T09:39:07;66.28;;;33.40;;
11447;SDS011;43755;49.736;8.734;2024-01-11T09:41:09;56.72;;;32.95;;
11447;SDS011;43755;49.736;8.734;2024-01-11T09:43:14;61.42;;;33.78;;
11447;SDS011;43755;49.736;8.734;2024-01-11T09:45:17;60.08;;;33.35;;
11447;SDS011;43755;49.736;8.734;2024-01-11T09:47:18;64.07;;;35.03;;
11447;SDS011;43755;49.736;8.734;2024-01-11T09:49:19;61.70;;;34.57;;
11447;SDS011;43755;49.736;8.734;2024-01-11T09:51:23;61.90;;;33.35;;
11447;SDS011;43755;49.736;8.734;2024-01-11T09:53:26;57.40;;;31.27;;
11447;SDS011;43755;49.736;8.734;2024-01-11T09:55:29;60.72;;;31.60;;
11447;SDS011;43755;49.736;8.734;2024-01-11T09:57:31;51.75;;;30.48;;
11447;SDS011;43755;49.736;8.734;2024-01-11T09:59:35;55.65;;;31.58;;
11447;SDS011;43755;49.736;8.734;2024-01-11T10:01:37;56.45;;;32.35;;
11447;SDS011;43755;49.736;8.734;2024-01-11T10:03:38;53.67;;;31.10;;
11447;SDS011;43755;49.736;8.734;2024-01-11T10:05:40;55.42;;;31.40;;
11447;SDS011;43755;49.736;8.734;2024-01-11T10:07:43;58.70;;;32.60;;
11447;SDS011;43755;49.736;8.734;2024-01-11T10:09:45;53.38;;;30.10;;
11447;SDS011;43755;49.736;8.734;2024-01-11T10:11:47;50.90;;;29.70;;
11447;SDS011;43755;49.736;8.734;2024-01-11T10:13:51;55.05;;;30.67;;
11447;SDS011;43755;49.736;8.734;2024-01-11T10:16:08;53.30;;;29.67;;
11447;SDS011;43755;49.736;8.734;2024-01-11T10:18:13;51.95;;;29.88;;
11447;SDS011;43755;49.736;8.734;2024-01-11T10:20:14;53.03;;;30.10;;
11447;SDS011;43755;49.736;8.734;2024-01-11T10:22:16;54.55;;;29.92;;
11447;SDS011;43755;49.736;8.734;2024-01-11T10:24:18;53.15;;;30.13;;
11447;SDS011;43755;49.736;8.734;2024-01-11T10:26:22;51.53;;;29.50;;
11447;SDS011;43755;49.736;8.734;2024-01-11T10:28:22;53.10;;;30.77;;
11447;SDS011;43755;49.736;8.734;2024-01-11T10:30:24;61.00;;;31.05;;
11447;SDS011;43755;49.736;8.734;2024-01-11T10:32:29;54.53;;;31.80;;
11447;SDS011;43755;49.736;8.734;2024-01-11T10:34:29;59.15;;;31.98;;
11447;SDS011;43755;49.736;8.734;2024-01-11T10:36:31;55.55;;;30.42;;
11447;SDS011;43755;49.736;8.734;2024-01-11T10:38:33;55.45;;;30.77;;
11447;SDS011;43755;49.736;8.734;2024-01-11T10:40:38;58.10;;;32.25;;
11447;SDS011;43755;49.736;8.734;2024-01-11T10:42:41;57.88;;;31.70;;
11447;SDS011;43755;49.736;8.734;2024-01-11T10:44:44;56.28;;;31.75;;
11447;SDS011;43755;49.736;8.734;2024-01-11T10:46:47;59.33;;;32.70;;
11447;SDS011;43755;49.736;8.734;2024-01-11T10:48:51;57.03;;;32.38;;
11447;SDS011;43755;49.736;8.734;2024-01-11T10:50:58;56.13;;;30.92;;
11447;SDS011;43755;49.736;8.734;2024-01-11T10:53:04;53.42;;;30.45;;
11447;SDS011;43755;49.736;8.734;2024-01-11T10:55:13;54.95;;;30.60;;
11447;SDS011;43755;49.736;8.734;2024-01-11T10:57:16;52.22;;;28.92;;
11447;SDS011;43755;49.736;8.734;2024-01-11T10:59:19;50.67;;;28.63;;
11447;SDS011;43755;49.736;8.734;2024-01-11T11:01:24;51.47;;;29.40;;
11447;SDS011;43755;49.736;8.734;2024-01-11T11:03:27;52.30;;;29.73;;
11447;SDS011;43755;49.736;8.734;2024-01-11T11:05:30;53.50;;;30.40;;
11447;SDS011;43755;49.736;8.734;2024-01-11T11:07:35;55.85;;;28.30;;
11447;SDS011;43755;49.736;8.734;2024-01-11T11:09:37;51.20;;;29.17;;
11447;SDS011;43755;49.736;8.734;2024-01-11T11:11:39;50.00;;;28.55;;
11447;SDS011;43755;49.736;8.734;2024-01-11T11:13:41;47.58;;;28.55;;
11447;SDS011;43755;49.736;8.734;2024-01-11T11:15:44;50.80;;;30.00;;
11447;SDS011;43755;49.736;8.734;2024-01-11T11:17:46;47.53;;;28.65;;
11447;SDS011;43755;49.736;8.734;2024-01-11T11:19:53;46.58;;;26.85;;
11447;SDS011;43755;49.736;8.734;2024-01-11T11:21:56;46.63;;;26.35;;
11447;SDS011;43755;49.736;8.734;2024-01-11T11:23:57;48.60;;;29.00;;
11447;SDS011;43755;49.736;8.734;2024-01-11T11:25:58;47.03;;;27.38;;
11447;SDS011;43755;49.736;8.734;2024-01-11T11:28:00;43.17;;;26.67;;
11447;SDS011;43755;49.736;8.734;2024-01-11T11:30:04;44.92;;;28.27;;
11447;SDS011;43755;49.736;8.734;2024-01-11T11:32:06;49.63;;;29.40;;
11447;SDS011;43755;49.736;8.734;2024-01-11T11:34:11;46.95;;;27.45;;
11447;SDS011;43755;49.736;8.734;2024-01-11T11:36:12;47.90;;;27.53;;
11447;SDS011;43755;49.736;8.734;2024-01-11T11:38:18;44.20;;;27.42;;
11447;SDS011;43755;49.736;8.734;2024-01-11T11:40:21;42.30;;;26.75;;
11447;SDS011;43755;49.736;8.734;2024-01-11T11:42:33;42.20;;;25.52;;
11447;SDS011;43755;49.736;8.734;2024-01-11T11:44:35;42.53;;;24.80;;
11447;SDS011;43755;49.736;8.734;2024-01-11T11:46:37;41.75;;;25.80;;
11447;SDS011;43755;49.736;8.734;2024-01-11T11:48:48;46.58;;;27.13;;
11447;SDS011;43755;49.736;8.734;2024-01-11T11:51:00;48.38;;;26.65;;
11447;SDS011;43755;49.736;8.734;2024-01-11T11:53:02;44.88;;;26.48;;